BSG weather

Bata Airport
Litoral, Equatorial Guinea

Public forecast

Using degrees Celsius for public forecast. Weather courtesy of forecast.io.

METAR (pilot weather report)

Retrieved 2019/03/20 13:00 UTC (37 minutes ago):

FGBT 201300Z 24007KT 210V270 9999 FEW010 FEW020CB 32/28 Q1007

TAF (pilot weather forecast)

Retrieved 2019/03/20 12:30 UTC (1 hour ago):

TAF TAF FGBT 201100Z 2012/2112 22008KT 9999 SCT010 TEMPO 2016/2022 TS BKN010 FEW020CB